Ladle Cove, Canada
Current Conditions -  °F | °C
As of 2:00 PM on Friday 24 Oct 2014 (Local Time) from CYQX Reporting Station
Moderate Fog Moderate Fog  
Wind Chill: 42°   Ceiling: 600
Heat Index: 48°   Visibility: 8mi
Dew Point: 46°   Wind: 15mph
Humidity: 93%   Direction: 70°ENE
Pressure: 29.92"   Gusts: NA
Location:  49.45°N, 54.05°W
Report Text: CYQX 241600Z 07013KT 8SM VCFG BKN006 OVC012 09/08 A2992 RMK SF7SC1 VIS SE-SW 4 BR SLP138
Loading
Personal Weather Stations






























Interactive Weather Map
Tropical Storm Tracking
New forecast layout! Learn more

10-Day Weather Forecast

Advertisements
Track Severe Weather on mobile